createdAt,value
2019-03-04T00:00:43.337Z,61
2019-03-04T00:01:33.994Z,61
2019-03-04T00:02:23.212Z,61
2019-03-04T00:03:14.381Z,61
2019-03-04T00:04:04.137Z,61
2019-03-04T00:04:53.919Z,61
2019-03-04T00:05:43.142Z,60.9
2019-03-04T00:06:34.049Z,60.9
2019-03-04T00:07:23.867Z,60.9
2019-03-04T00:08:14.147Z,60.9
2019-03-04T00:09:04.212Z,60.9
2019-03-04T00:09:54.562Z,60.9
2019-03-04T00:10:43.649Z,60.9
2019-03-04T00:11:33.924Z,60.9
2019-03-04T00:12:23.982Z,60.9
2019-03-04T00:13:13.526Z,60.9
2019-03-04T00:14:04.436Z,60.9
2019-03-04T00:14:54.923Z,60.9
2019-03-04T00:15:44.141Z,60.9
2019-03-04T00:16:35.019Z,60.9
2019-03-04T00:17:24.888Z,60.9
2019-03-04T00:18:15.183Z,60.9
2019-03-04T00:19:04.933Z,60.9
2019-03-04T00:19:55.019Z,60.9
2019-03-04T00:20:45.063Z,60.8
2019-03-04T00:21:35.837Z,60.8
2019-03-04T00:22:25.448Z,60.8
2019-03-04T00:23:15.266Z,60.8
2019-03-04T00:24:05.018Z,60.8
2019-03-04T00:24:55.668Z,60.8
2019-03-04T00:25:45.946Z,60.8
2019-03-04T00:26:35.763Z,60.8
2019-03-04T00:27:25.278Z,60.8
2019-03-04T00:28:15.013Z,60.8
2019-03-04T00:29:05.628Z,60.8
2019-03-04T00:29:56.243Z,60.8
2019-03-04T00:30:45.728Z,60.8
2019-03-04T00:31:35.532Z,60.8
2019-03-04T00:32:26.420Z,60.8
2019-03-04T00:33:15.090Z,60.8
2019-03-04T00:34:05.982Z,60.8
2019-03-04T00:34:55.496Z,60.8
2019-03-04T00:35:46.362Z,60.7
2019-03-04T00:36:35.325Z,60.7
2019-03-04T00:37:26.215Z,60.7
2019-03-04T00:38:16.289Z,60.7
2019-03-04T00:39:06.330Z,60.7
2019-03-04T00:39:56.380Z,60.7
2019-03-04T00:40:46.448Z,60.7
2019-03-04T00:41:36.002Z,60.7
2019-03-04T00:42:27.112Z,60.7
2019-03-04T00:43:16.357Z,60.7
2019-03-04T00:44:06.392Z,60.7
2019-03-04T00:44:56.797Z,60.6
2019-03-04T00:45:46.832Z,60.6
2019-03-04T00:46:36.586Z,60.6
2019-03-04T00:47:26.927Z,60.6
2019-03-04T00:48:17.002Z,60.6
2019-03-04T00:49:07.061Z,60.6
2019-03-04T00:49:58.907Z,60.6
2019-03-04T00:50:47.696Z,60.6
2019-03-04T00:51:37.229Z,60.6
2019-03-04T00:52:27.279Z,60.6
2019-03-04T00:53:17.881Z,60.6
2019-03-04T00:54:07.459Z,60.6
2019-03-04T00:54:57.464Z,60.6
2019-03-04T00:55:47.776Z,60.6
2019-03-04T00:56:37.578Z,60.6
2019-03-04T00:57:27.628Z,60.6
2019-03-04T00:58:17.404Z,60.5
2019-03-04T00:59:07.724Z,60.5
2019-03-04T00:59:57.794Z,60.6
2019-03-04T01:00:47.872Z,60.5
2019-03-04T01:01:37.371Z,60.5
2019-03-04T01:02:27.684Z,60.5
2019-03-04T01:03:17.821Z,60.5
2019-03-04T01:04:08.363Z,60.5
2019-03-04T01:04:57.601Z,60.5
2019-03-04T01:05:48.209Z,60.5
2019-03-04T01:06:38.826Z,60.4
2019-03-04T01:07:28.050Z,60.4
2019-03-04T01:08:18.105Z,60.4
2019-03-04T01:09:08.156Z,60.4
2019-03-04T01:09:58.233Z,60.4
2019-03-04T01:10:48.614Z,60.4
2019-03-04T01:11:39.244Z,60.4
2019-03-04T01:12:29.220Z,60.4
2019-03-04T01:13:19.023Z,60.4
2019-03-04T01:14:08.260Z,60.4
2019-03-04T01:14:59.400Z,60.4
2019-03-04T01:15:48.418Z,60.4
2019-03-04T01:16:39.230Z,60.4
2019-03-04T01:17:28.750Z,60.4
2019-03-04T01:18:19.393Z,60.4
2019-03-04T01:19:09.427Z,60.4
2019-03-04T01:19:59.190Z,60.4
2019-03-04T01:20:49.529Z,60.4
2019-03-04T01:21:39.331Z,60.3
2019-03-04T01:22:29.945Z,60.3
2019-03-04T01:23:19.454Z,60.3
2019-03-04T01:24:08.975Z,60.3
2019-03-04T01:24:59.292Z,60.3
2019-03-04T01:25:50.212Z,60.3
2019-03-04T01:26:40.217Z,60.3
2019-03-04T01:27:30.010Z,60.3
2019-03-04T01:28:19.794Z,60.3
2019-03-04T01:29:09.874Z,60.3
2019-03-04T01:30:00.302Z,60.3
2019-03-04T01:30:49.974Z,60.3
2019-03-04T01:31:39.783Z,60.3
2019-03-04T01:32:30.082Z,60.3
2019-03-04T01:33:20.145Z,60.3
2019-03-04T01:34:10.507Z,60.3
2019-03-04T01:35:00.315Z,60.3
2019-03-04T01:35:50.857Z,60.3
2019-03-04T01:36:40.091Z,60.3
2019-03-04T01:37:30.159Z,60.2
2019-03-04T01:38:20.509Z,60.2
2019-03-04T01:39:10.821Z,60.2
2019-03-04T01:40:00.046Z,60.2
2019-03-04T01:40:51.243Z,60.2
2019-03-04T01:41:40.776Z,60.2
2019-03-04T01:42:31.356Z,60.2
2019-03-04T01:43:20.886Z,60.2
2019-03-04T01:44:11.198Z,60.1
2019-03-04T01:45:00.313Z,60.1
2019-03-04T01:45:51.294Z,60.1
2019-03-04T01:46:41.361Z,60.1
2019-03-04T01:47:31.413Z,60.1
2019-03-04T01:48:21.830Z,60.1
2019-03-04T01:49:10.703Z,60.1
2019-03-04T01:50:01.116Z,60.1
2019-03-04T01:50:51.098Z,60.1
2019-03-04T01:51:41.717Z,60.1
2019-03-04T01:52:31.567Z,60.1
2019-03-04T01:53:21.880Z,60.1
2019-03-04T01:54:11.058Z,60.1
2019-03-04T01:55:02.005Z,60.1
2019-03-04T01:55:51.983Z,60.1
2019-03-04T01:56:42.100Z,60.1
2019-03-04T01:57:31.563Z,60.1
2019-03-04T01:58:22.228Z,60.1
2019-03-04T01:59:11.945Z,60.1
2019-03-04T02:00:01.009Z,60.1
2019-03-04T02:00:52.060Z,60
2019-03-04T02:01:41.917Z,60
2019-03-04T02:02:32.749Z,60
2019-03-04T02:03:22.037Z,60
2019-03-04T02:04:11.482Z,60
2019-03-04T02:05:02.949Z,60
2019-03-04T02:05:52.155Z,60
2019-03-04T02:06:42.216Z,60
2019-03-04T02:07:32.543Z,60
2019-03-04T02:08:22.632Z,59.9
2019-03-04T02:09:12.962Z,59.9
2019-03-04T02:10:02.436Z,59.9
2019-03-04T02:10:52.772Z,59.9
2019-03-04T02:11:43.109Z,59.9
2019-03-04T02:12:33.457Z,59.9
2019-03-04T02:13:22.965Z,59.9
2019-03-04T02:14:13.080Z,59.9
2019-03-04T02:15:03.745Z,59.9
2019-03-04T02:15:52.914Z,59.9
2019-03-04T02:16:43.462Z,59.9
2019-03-04T02:17:32.441Z,59.9
2019-03-04T02:18:23.599Z,59.9
2019-03-04T02:19:13.678Z,59.9
2019-03-04T02:20:03.069Z,59.9
2019-03-04T02:20:53.779Z,59.9
2019-03-04T02:21:43.254Z,59.8
2019-03-04T02:22:33.596Z,59.8
2019-03-04T02:23:23.184Z,59.8
2019-03-04T02:24:13.215Z,59.8
2019-03-04T02:25:03.844Z,59.8
2019-03-04T02:25:53.376Z,59.8
2019-03-04T02:26:43.401Z,59.8
2019-03-04T02:27:33.521Z,59.8
2019-03-04T02:28:23.179Z,59.8
2019-03-04T02:29:13.808Z,59.8
2019-03-04T02:30:04.090Z,59.8
2019-03-04T02:30:54.562Z,59.8
2019-03-04T02:31:44.562Z,59.8
2019-03-04T02:32:34.082Z,59.8
2019-03-04T02:33:23.667Z,59.8
2019-03-04T02:34:14.874Z,59.8
2019-03-04T02:35:04.729Z,59.8
2019-03-04T02:35:53.778Z,59.8
2019-03-04T02:36:44.994Z,59.8
2019-03-04T02:37:34.767Z,59.7
2019-03-04T02:38:25.031Z,59.7
2019-03-04T02:39:14.304Z,59.7
2019-03-04T02:40:04.909Z,59.7
2019-03-04T02:40:55.209Z,59.7
2019-03-04T02:41:45.572Z,59.7
2019-03-04T02:42:35.593Z,59.7
2019-03-04T02:43:25.683Z,59.7
2019-03-04T02:44:15.456Z,59.7
2019-03-04T02:45:05.804Z,59.7
2019-03-04T02:45:55.328Z,59.6
2019-03-04T02:46:45.975Z,59.6
2019-03-04T02:47:35.680Z,59.6
2019-03-04T02:48:26.114Z,59.6
2019-03-04T02:49:15.874Z,59.6
2019-03-04T02:50:05.843Z,59.6
2019-03-04T02:50:55.383Z,59.6
2019-03-04T02:51:45.433Z,59.6
2019-03-04T02:52:35.868Z,59.6
2019-03-04T02:53:25.907Z,59.6
2019-03-04T02:54:15.387Z,59.6
2019-03-04T02:55:06.238Z,59.6
2019-03-04T02:55:55.723Z,59.6
2019-03-04T02:56:46.617Z,59.6
2019-03-04T02:57:36.117Z,59.6
2019-03-04T02:58:26.002Z,59.6
2019-03-04T02:59:16.269Z,59.6
2019-03-04T03:00:05.802Z,59.6
2019-03-04T03:00:56.913Z,59.5
2019-03-04T03:01:46.147Z,59.5
2019-03-04T03:02:35.638Z,59.5
2019-03-04T03:03:26.561Z,59.5
2019-03-04T03:04:16.609Z,59.5
2019-03-04T06:05:47.930Z,58
2019-03-04T06:06:38.810Z,58
2019-03-04T06:07:28.884Z,58
2019-03-04T06:08:18.660Z,58
2019-03-04T06:09:08.448Z,58
2019-03-04T06:09:58.222Z,58
2019-03-04T06:10:48.324Z,58
2019-03-04T06:11:38.874Z,57.9
2019-03-04T06:12:28.097Z,57.9
2019-03-04T06:13:18.481Z,57.9
2019-03-04T06:14:09.079Z,57.9
2019-03-04T06:14:59.399Z,57.9
2019-03-04T06:15:48.942Z,57.9
2019-03-04T06:16:49.139Z,57.9
2019-03-04T06:17:28.744Z,57.9
2019-03-04T06:18:19.116Z,57.9
2019-03-04T06:19:09.399Z,57.9
2019-03-04T06:19:58.989Z,57.9
2019-03-04T06:20:49.804Z,57.9
2019-03-04T06:21:39.336Z,57.9
2019-03-04T06:22:29.356Z,57.9
2019-03-04T06:23:19.966Z,57.9
2019-03-04T06:24:09.769Z,57.9
2019-03-04T06:24:59.257Z,57.9
2019-03-04T06:25:50.314Z,57.9
2019-03-04T06:26:39.979Z,57.9
2019-03-04T06:27:30.006Z,57.8
2019-03-04T06:28:19.228Z,57.8
2019-03-04T06:29:09.830Z,57.8
2019-03-04T06:29:59.346Z,57.8
2019-03-04T06:30:52.213Z,57.8
2019-03-04T06:31:40.048Z,57.8
2019-03-04T06:32:30.634Z,57.8
2019-03-04T06:33:20.413Z,57.8
2019-03-04T06:35:00.523Z,57.8
2019-03-04T06:35:50.031Z,57.8
2019-03-04T06:44:11.153Z,57.7
2019-03-04T06:45:00.995Z,57.7
2019-03-04T06:45:50.722Z,57.7
2019-03-04T06:46:41.417Z,57.7
2019-03-04T06:47:31.391Z,57.7
2019-03-04T06:48:20.894Z,57.7
2019-03-04T06:49:11.257Z,57.7
2019-03-04T06:50:01.554Z,57.7
2019-03-04T06:50:52.010Z,57.7
2019-03-04T06:51:41.409Z,57.7
2019-03-04T06:52:31.782Z,57.6
2019-03-04T06:53:22.142Z,57.6
2019-03-04T06:54:11.573Z,57.6
2019-03-04T06:55:01.772Z,57.6
2019-03-04T06:55:51.687Z,57.6
2019-03-04T06:56:41.775Z,57.6
2019-03-04T06:57:33.566Z,57.6
2019-03-04T06:58:22.179Z,57.6
2019-03-04T06:59:11.927Z,57.6
2019-03-04T07:00:02.249Z,57.6
2019-03-04T07:00:52.646Z,57.6
2019-03-04T07:01:42.154Z,57.6
2019-03-04T07:02:32.707Z,57.6
2019-03-04T07:03:21.946Z,57.6
2019-03-04T07:05:48.162Z,57.5
2019-03-04T07:06:38.208Z,57.5
2019-03-04T07:07:28.279Z,57.5
2019-03-04T07:08:18.336Z,57.5
2019-03-04T07:09:08.688Z,57.5
2019-03-04T07:09:58.452Z,57.5
2019-03-04T07:10:47.955Z,57.5
2019-03-04T07:11:39.186Z,57.5
2019-03-04T07:12:28.894Z,57.5
2019-03-04T07:13:18.453Z,57.5
2019-03-04T07:14:09.037Z,57.5
2019-03-04T07:14:58.496Z,57.4
2019-03-04T07:15:48.326Z,57.4
2019-03-04T07:16:38.928Z,57.4
2019-03-04T07:17:28.976Z,57.4
2019-03-04T07:18:18.800Z,57.4
2019-03-04T07:19:08.583Z,57.4
2019-03-04T07:19:59.675Z,57.4
2019-03-04T07:20:49.503Z,57.4
2019-03-04T07:21:39.330Z,57.4
2019-03-04T07:22:29.313Z,57.4
2019-03-04T07:23:19.655Z,57.4
2019-03-04T07:24:09.812Z,57.4
2019-03-04T07:24:58.663Z,57.4
2019-03-04T07:25:49.540Z,57.4
2019-03-04T07:26:39.385Z,57.4
2019-03-04T07:27:29.442Z,57.4
2019-03-04T07:28:20.270Z,57.4
2019-03-04T07:29:09.774Z,57.4
2019-03-04T07:29:59.564Z,57.3
2019-03-04T07:30:49.893Z,57.4
2019-03-04T07:31:39.945Z,57.3
2019-03-04T07:32:30.014Z,57.3
2019-03-04T07:33:20.434Z,57.3
2019-03-04T07:34:09.577Z,57.3
2019-03-04T07:35:00.338Z,57.3
2019-03-04T07:35:50.791Z,57.3
2019-03-04T07:36:40.583Z,57.3
2019-03-04T07:37:30.629Z,57.3
2019-03-04T07:38:20.394Z,57.3
2019-03-04T07:39:10.740Z,57.3
2019-03-04T07:40:00.824Z,57.3
2019-03-04T07:40:50.592Z,57.3
2019-03-04T07:41:40.394Z,57.3
2019-03-04T07:42:32.804Z,57.3
2019-03-04T07:43:20.761Z,57.3
2019-03-04T07:44:10.562Z,57.3
2019-03-04T07:45:01.334Z,57.3
2019-03-04T07:45:51.511Z,57.3
2019-03-04T07:46:41.546Z,57.2
2019-03-04T07:47:31.056Z,57.2
2019-03-04T07:48:20.591Z,57.2
2019-03-04T07:49:11.444Z,57.2
2019-03-04T07:50:00.871Z,57.2
2019-03-04T07:50:50.746Z,57.2
2019-03-04T07:51:41.351Z,57.2
2019-03-04T07:52:30.863Z,57.2
2019-03-04T07:53:23.206Z,57.2
2019-03-04T07:54:11.256Z,57.3
2019-03-04T07:55:01.588Z,57.3
2019-03-04T07:55:52.193Z,57.3
2019-03-04T07:56:42.271Z,57.3
2019-03-04T07:57:32.053Z,57.3
2019-03-04T07:58:22.153Z,57.3
2019-03-04T07:59:12.155Z,57.4
2019-03-04T08:00:02.713Z,57.4
2019-03-04T08:00:51.590Z,57.4
2019-03-04T08:01:41.775Z,57.5
2019-03-04T08:02:31.835Z,57.5
2019-03-04T08:03:22.185Z,57.6
2019-03-04T08:04:11.673Z,57.6
2019-03-04T08:05:02.565Z,57.7
2019-03-04T08:06:41.885Z,57.8
2019-03-04T08:07:32.478Z,57.9
2019-03-04T08:08:22.790Z,57.9
2019-03-04T08:09:12.856Z,57.9
2019-03-04T08:10:01.868Z,58
2019-03-04T08:10:52.423Z,58.1
2019-03-04T08:11:42.762Z,58.1
2019-03-04T08:12:33.364Z,58.1
2019-03-04T08:13:22.672Z,58.3
2019-03-04T08:14:12.922Z,58.3
2019-03-04T08:15:03.395Z,58.3
2019-03-04T08:15:53.322Z,58.4
2019-03-04T08:16:43.415Z,58.5
2019-03-04T08:19:13.557Z,58.6
2019-03-04T08:20:03.652Z,58.7
2019-03-04T08:20:53.672Z,58.7
2019-03-04T08:21:43.244Z,58.8
2019-03-04T08:22:33.839Z,58.9
2019-03-04T08:23:23.586Z,58.9
2019-03-04T08:24:13.107Z,59
2019-03-04T08:25:04.254Z,59.1
2019-03-04T08:25:54.050Z,59.1
2019-03-04T08:26:43.284Z,59.2
2019-03-04T08:27:33.842Z,59.3
2019-03-04T08:28:24.504Z,59.3
2019-03-04T08:29:14.539Z,59.4
2019-03-04T08:30:04.649Z,59.4
2019-03-04T08:30:54.419Z,59.6
2019-03-04T08:31:44.165Z,59.6
2019-03-04T08:32:34.556Z,59.8
2019-03-04T08:33:24.477Z,59.8
2019-03-04T08:34:14.654Z,59.9
2019-03-04T08:35:04.399Z,59.9
2019-03-04T08:35:54.761Z,60
2019-03-04T08:36:44.514Z,60
2019-03-04T08:37:35.119Z,60.1
2019-03-04T08:38:24.621Z,60.3
2019-03-04T08:39:14.669Z,60.3
2019-03-04T08:40:04.506Z,60.3
2019-03-04T08:40:55.066Z,60.4
2019-03-04T08:41:45.144Z,60.4
2019-03-04T08:42:35.193Z,60.6
2019-03-04T08:43:24.689Z,60.6
2019-03-04T08:44:15.298Z,60.7
2019-03-04T08:45:05.408Z,60.8
2019-03-04T08:45:55.418Z,60.9
2019-03-04T08:46:45.789Z,60.9
2019-03-04T08:47:35.563Z,60.9
2019-03-04T08:48:25.648Z,61
2019-03-04T08:49:15.670Z,61.1
2019-03-04T08:50:05.470Z,61.2
2019-03-04T08:50:55.568Z,61.3
2019-03-04T08:51:45.849Z,61.4
2019-03-04T08:52:35.100Z,61.5
2019-03-04T08:53:25.658Z,61.6
2019-03-04T08:54:16.053Z,61.7
2019-03-04T08:55:05.568Z,61.7
2019-03-04T08:55:56.201Z,61.8
2019-03-04T08:56:45.911Z,61.9
2019-03-04T08:57:35.478Z,62
2019-03-04T08:58:25.240Z,62.1
2019-03-04T08:59:16.121Z,62.1
2019-03-04T09:00:05.705Z,62.2
2019-03-04T09:00:56.475Z,62.3
2019-03-04T09:01:46.832Z,62.4
2019-03-04T09:02:35.830Z,62.4
2019-03-04T09:03:26.469Z,62.6
2019-03-04T09:04:16.227Z,62.6
2019-03-04T09:05:06.303Z,62.7
2019-03-04T09:05:55.510Z,62.8
2019-03-04T09:06:46.107Z,62.8
2019-03-04T09:07:36.970Z,62.9
2019-03-04T09:08:26.820Z,63
2019-03-04T09:09:17.057Z,63.1
2019-03-04T09:10:07.126Z,63.2
2019-03-04T09:10:56.440Z,63.3
2019-03-04T09:11:47.042Z,63.3
2019-03-04T09:12:38.614Z,63.4
2019-03-04T09:13:27.142Z,63.4
2019-03-04T09:14:16.656Z,63.5
2019-03-04T09:15:07.012Z,63.6
2019-03-04T09:15:56.524Z,63.7
2019-03-04T09:16:46.824Z,63.8
2019-03-04T09:17:36.596Z,63.9
2019-03-04T09:18:26.962Z,63.9
2019-03-04T09:19:17.306Z,64
2019-03-04T09:20:07.616Z,64.1
2019-03-04T09:20:57.169Z,64.3
2019-03-04T09:21:47.449Z,64.3
2019-03-04T09:22:37.538Z,64.4
2019-03-04T09:23:27.572Z,64.4
2019-03-04T09:24:17.681Z,64.5
2019-03-04T09:25:07.438Z,64.6
2019-03-04T09:25:57.486Z,64.6
2019-03-04T09:26:47.543Z,64.8
2019-03-04T09:27:38.351Z,64.8
2019-03-04T09:28:27.953Z,64.9
2019-03-04T09:29:17.696Z,64.9
2019-03-04T09:30:07.814Z,65.1
2019-03-04T09:30:57.826Z,65.1
2019-03-04T09:31:48.352Z,65.2
2019-03-04T09:32:37.906Z,65.3
2019-03-04T09:33:28.503Z,65.4
2019-03-04T09:34:18.544Z,65.6
2019-03-04T09:35:08.618Z,65.6
2019-03-04T09:35:58.945Z,65.6
2019-03-04T09:36:49.021Z,65.8
2019-03-04T09:37:38.773Z,65.9
2019-03-04T09:38:28.538Z,65.9
2019-03-04T09:39:19.208Z,66
2019-03-04T09:40:08.998Z,66
2019-03-04T09:40:59.338Z,66.1
2019-03-04T09:41:49.610Z,66.2
2019-03-04T09:42:39.815Z,66.3
2019-03-04T09:43:29.185Z,66.4
2019-03-04T09:44:19.233Z,66.4
2019-03-04T09:45:09.368Z,66.6
2019-03-04T09:45:58.865Z,66.7
2019-03-04T09:46:49.735Z,66.8
2019-03-04T09:47:39.480Z,66.8
2019-03-04T09:48:29.800Z,66.9
2019-03-04T09:49:19.869Z,66.9
2019-03-04T09:50:09.642Z,67.1
2019-03-04T09:50:59.692Z,67.1
2019-03-04T09:51:50.360Z,67.2
2019-03-04T09:52:39.294Z,67.3
2019-03-04T09:53:40.429Z,67.4
2019-03-04T09:54:19.655Z,67.4
2019-03-04T09:55:10.589Z,67.6
2019-03-04T09:55:59.559Z,67.6
2019-03-04T09:56:50.269Z,67.7
2019-03-04T09:57:40.179Z,67.8
2019-03-04T09:58:30.558Z,67.8
2019-03-04T09:59:20.284Z,67.9
2019-03-04T10:00:10.882Z,68
2019-03-04T10:01:00.377Z,68.2
2019-03-04T10:01:50.739Z,68.3
2019-03-04T10:02:40.837Z,68.3
2019-03-04T10:03:30.837Z,68.4
2019-03-04T10:04:20.906Z,68.4
2019-03-04T10:06:48.288Z,68.7
2019-03-04T10:07:38.337Z,68.8
2019-03-04T10:08:37.451Z,68.9
2019-03-04T10:09:18.186Z,68.9
2019-03-04T10:10:08.316Z,69
2019-03-04T10:10:58.024Z,69.1
2019-03-04T10:11:48.061Z,69.2
2019-03-04T10:12:38.986Z,69.3
2019-03-04T10:13:28.753Z,69.3
2019-03-04T10:14:18.042Z,69.4
2019-03-04T10:15:12.773Z,69.4
2019-03-04T10:15:58.378Z,69.5
2019-03-04T10:16:49.301Z,69.6
2019-03-04T10:17:38.214Z,69.6
2019-03-04T10:18:28.848Z,69.8
2019-03-04T10:19:18.323Z,69.8
2019-03-04T10:20:08.947Z,69.9
2019-03-04T10:20:59.039Z,70
2019-03-04T10:21:51.226Z,70.1
2019-03-04T10:22:39.174Z,70.1
2019-03-04T10:23:28.621Z,70.2
2019-03-04T10:24:18.687Z,70.3
2019-03-04T10:25:09.013Z,70.4
2019-03-04T10:25:59.061Z,70.4
2019-03-04T10:26:49.969Z,70.5
2019-03-04T10:27:39.178Z,70.6
2019-03-04T10:28:29.533Z,70.6
2019-03-04T10:29:19.848Z,70.7
2019-03-04T10:30:09.648Z,70.8
2019-03-04T10:30:59.732Z,70.8
2019-03-04T10:31:50.040Z,70.9
2019-03-04T10:32:39.808Z,70.9
2019-03-04T10:33:30.468Z,71
2019-03-04T10:34:20.200Z,71.1
2019-03-04T10:35:10.287Z,71.1
2019-03-04T10:35:59.510Z,71.3
2019-03-04T10:36:50.372Z,71.3
2019-03-04T10:37:40.430Z,71.3
2019-03-04T10:38:29.657Z,71.4
2019-03-04T10:39:26.495Z,71.4
2019-03-04T10:40:09.792Z,71.4
2019-03-04T10:41:02.628Z,71.5
2019-03-04T10:41:50.201Z,71.6
2019-03-04T10:42:40.813Z,71.6
2019-03-04T10:43:30.304Z,71.7
2019-03-04T10:44:21.192Z,71.7
2019-03-04T10:45:10.422Z,71.8
2019-03-04T10:46:00.754Z,71.8
2019-03-04T10:46:50.824Z,71.9
2019-03-04T10:47:41.402Z,72
2019-03-04T10:48:31.250Z,72
2019-03-04T10:49:21.529Z,72.1
2019-03-04T10:50:11.039Z,72.1
2019-03-04T10:51:01.374Z,72.2
2019-03-04T10:51:50.666Z,72.3
2019-03-04T10:52:41.780Z,72.3
2019-03-04T10:53:31.842Z,72.4
2019-03-04T10:54:21.877Z,72.4
2019-03-04T10:55:11.677Z,72.5
2019-03-04T10:56:01.746Z,72.5
2019-03-04T10:56:50.754Z,72.6
2019-03-04T10:57:41.853Z,72.6
2019-03-04T10:58:31.071Z,72.7
2019-03-04T10:59:22.211Z,72.8
2019-03-04T11:00:12.089Z,72.9
2019-03-04T11:01:02.131Z,72.9
2019-03-04T11:01:54.336Z,72.9
2019-03-04T11:02:41.339Z,73
2019-03-04T11:03:32.523Z,73.1
2019-03-04T11:04:21.538Z,73.2
2019-03-04T11:05:11.578Z,73.2
2019-03-04T11:06:01.870Z,73.3
2019-03-04T11:06:52.211Z,73.3
2019-03-04T11:07:42.077Z,73.3
2019-03-04T11:08:32.655Z,73.3
2019-03-04T11:09:22.440Z,73.4
2019-03-04T11:10:11.947Z,73.4
2019-03-04T11:11:02.519Z,73.5
2019-03-04T11:11:53.093Z,73.6
2019-03-04T11:12:42.893Z,73.6
2019-03-04T11:13:33.223Z,73.7
2019-03-04T11:14:22.737Z,73.7
2019-03-04T11:15:12.778Z,73.8
2019-03-04T11:16:02.850Z,73.8
2019-03-04T11:16:53.467Z,73.9
2019-03-04T11:17:42.945Z,73.9
2019-03-04T11:18:33.323Z,73.9
2019-03-04T11:19:23.440Z,74
2019-03-04T11:20:12.577Z,74.1
2019-03-04T11:21:03.190Z,74.1
2019-03-04T11:21:53.320Z,74.1
2019-03-04T11:22:43.027Z,74.1
2019-03-04T11:23:33.940Z,74.3
2019-03-04T11:24:23.985Z,74.3
2019-03-04T11:25:13.227Z,74.3
2019-03-04T11:26:03.570Z,74.4
2019-03-04T11:26:54.148Z,74.4
2019-03-04T11:27:43.385Z,74.4
2019-03-04T11:28:33.986Z,74.5
2019-03-04T11:29:24.352Z,74.5
2019-03-04T11:30:14.392Z,74.5
2019-03-04T11:31:03.897Z,74.6
2019-03-04T11:31:54.247Z,74.6
2019-03-04T11:32:44.045Z,74.6
2019-03-04T11:33:34.324Z,74.7
2019-03-04T11:34:24.171Z,74.7
2019-03-04T11:35:13.634Z,74.8
2019-03-04T11:36:04.894Z,74.8
2019-03-04T11:36:54.026Z,74.8
2019-03-04T11:37:44.634Z,74.9
2019-03-04T11:38:34.131Z,74.9
2019-03-04T11:39:24.819Z,74.9
2019-03-04T11:40:15.062Z,74.9
2019-03-04T11:41:04.871Z,75
2019-03-04T11:41:54.364Z,75
2019-03-04T11:42:45.262Z,75.1
2019-03-04T11:43:34.214Z,75.1
2019-03-04T11:44:25.109Z,75.1
2019-03-04T11:45:14.940Z,75.1
2019-03-04T11:46:05.501Z,75.2
2019-03-04T11:46:55.029Z,75.2
2019-03-04T11:47:45.326Z,75.3
2019-03-04T11:48:35.728Z,75.3
2019-03-04T11:49:25.223Z,75.3
2019-03-04T11:50:14.768Z,75.3
2019-03-04T11:51:05.593Z,75.4
2019-03-04T11:51:55.386Z,75.4
2019-03-04T11:52:45.691Z,75.4
2019-03-04T11:53:35.458Z,75.5
2019-03-04T11:54:25.867Z,75.5
2019-03-04T11:55:15.648Z,75.5
2019-03-04T11:56:05.936Z,75.5
2019-03-04T11:56:55.710Z,75.6
2019-03-04T11:57:46.045Z,75.6
2019-03-04T11:58:36.088Z,75.6
2019-03-04T11:59:26.228Z,75.6
2019-03-04T12:00:15.669Z,75.6
2019-03-04T12:01:05.808Z,75.7
2019-03-04T12:01:56.386Z,75.7
2019-03-04T12:02:46.107Z,75.7
2019-03-04T12:03:36.725Z,75.7
2019-03-04T12:04:26.530Z,75.7
2019-03-04T12:06:47.706Z,75.8
2019-03-04T12:07:37.448Z,75.8
2019-03-04T12:08:28.044Z,75.8
2019-03-04T12:09:18.112Z,75.8
2019-03-04T12:10:08.752Z,75.8
2019-03-04T12:10:58.462Z,75.8
2019-03-04T12:11:48.519Z,75.8
2019-03-04T12:12:38.328Z,75.9
2019-03-04T12:13:28.665Z,75.9
2019-03-04T12:14:18.685Z,75.9
2019-03-04T12:15:07.958Z,75.9
2019-03-04T12:15:58.835Z,75.9
2019-03-04T12:16:48.337Z,75.9
2019-03-04T12:17:38.127Z,75.9
2019-03-04T12:18:28.817Z,76
2019-03-04T12:19:18.539Z,76.1
2019-03-04T12:20:09.209Z,76.1
2019-03-04T12:20:59.442Z,76.1
2019-03-04T12:21:49.249Z,76.1
2019-03-04T12:22:39.282Z,76.1
2019-03-04T12:23:29.364Z,76.1
2019-03-04T12:24:19.476Z,76.1
2019-03-04T12:25:09.236Z,76.1
2019-03-04T12:25:58.416Z,76.1
2019-03-04T12:26:49.582Z,76.2
2019-03-04T12:27:39.139Z,76.2
2019-03-04T12:28:29.692Z,76.2
2019-03-04T12:29:19.773Z,76.2
2019-03-04T12:30:08.721Z,76.2
2019-03-04T12:31:00.161Z,76.2
2019-03-04T12:31:49.448Z,76.2
2019-03-04T12:32:39.993Z,76.2
2019-03-04T12:33:30.316Z,76.3
2019-03-04T12:34:29.576Z,76.3
2019-03-04T12:35:09.851Z,76.3
2019-03-04T12:36:00.236Z,76.3
2019-03-04T12:36:50.297Z,76.3
2019-03-04T12:37:40.641Z,76.3
2019-03-04T12:38:30.751Z,76.3
2019-03-04T12:39:20.186Z,76.3
2019-03-04T12:40:10.673Z,76.3
2019-03-04T12:41:00.844Z,76.3
2019-03-04T12:41:53.116Z,76.3
2019-03-04T12:42:41.008Z,76.3
2019-03-04T12:43:30.495Z,76.3
2019-03-04T12:44:20.279Z,76.3
2019-03-04T12:45:10.860Z,76.3
2019-03-04T12:45:59.810Z,76.3
2019-03-04T12:46:50.712Z,76.3
2019-03-04T12:47:41.060Z,76.3
2019-03-04T12:48:30.843Z,76.3
2019-03-04T12:49:21.454Z,76.3
2019-03-04T12:50:10.440Z,76.3
2019-03-04T12:51:01.284Z,76.3
2019-03-04T12:51:50.492Z,76.3
2019-03-04T12:52:41.123Z,76.3
2019-03-04T12:53:41.775Z,76.3
2019-03-04T12:54:21.232Z,76.3
2019-03-04T12:55:11.099Z,76.3
2019-03-04T12:56:01.635Z,76.3
2019-03-04T12:56:51.459Z,76.3
2019-03-04T12:57:41.469Z,76.3
2019-03-04T12:58:31.544Z,76.3
2019-03-04T12:59:20.825Z,76.3
2019-03-04T13:00:10.702Z,76.3
2019-03-04T13:01:01.994Z,76.3
2019-03-04T13:01:51.754Z,76.3
2019-03-04T13:02:41.819Z,76.3
2019-03-04T13:03:31.893Z,76.3
2019-03-04T13:04:22.224Z,76.3
2019-03-04T13:05:11.524Z,76.3
2019-03-04T13:06:01.792Z,76.3
2019-03-04T13:06:52.385Z,76.3
2019-03-04T13:07:42.742Z,76.3
2019-03-04T13:08:32.786Z,76.3
2019-03-04T13:09:22.050Z,76.3
2019-03-04T13:10:12.086Z,76.3
2019-03-04T13:11:02.684Z,76.3
2019-03-04T13:11:52.225Z,76.3
2019-03-04T13:12:42.860Z,76.3
2019-03-04T13:13:32.336Z,76.3
2019-03-04T13:14:22.933Z,76.3
2019-03-04T13:15:12.451Z,76.3
2019-03-04T13:16:01.934Z,76.2
2019-03-04T13:16:53.417Z,76.2
2019-03-04T13:17:42.897Z,76.2
2019-03-04T13:18:33.553Z,76.2
2019-03-04T13:19:23.087Z,76.2
2019-03-04T13:20:13.064Z,76.2
2019-03-04T13:21:03.398Z,76.2
2019-03-04T13:21:52.938Z,76.2
2019-03-04T13:22:43.569Z,76.1
2019-03-04T13:23:33.286Z,76.1
2019-03-04T13:24:24.018Z,76.1
2019-03-04T13:25:13.446Z,76.1
2019-03-04T13:26:03.481Z,76.1
2019-03-04T13:26:53.798Z,76.1
2019-03-04T13:27:42.525Z,76.1
2019-03-04T13:28:33.643Z,76.1
2019-03-04T13:29:24.261Z,76.1
2019-03-04T13:30:13.793Z,76.1
2019-03-04T13:31:19.040Z,76.1
2019-03-04T13:31:53.967Z,76.1
2019-03-04T13:32:44.226Z,76.1
2019-03-04T13:33:34.603Z,76.1
2019-03-04T13:34:23.648Z,76.1
2019-03-04T13:35:25.075Z,76.1
2019-03-04T13:36:03.613Z,76.1
2019-03-04T13:36:54.375Z,76
2019-03-04T13:37:44.405Z,76
2019-03-04T13:38:34.415Z,76
2019-03-04T13:39:24.508Z,76
2019-03-04T13:40:13.978Z,76
2019-03-04T13:41:04.055Z,76
2019-03-04T13:41:54.432Z,75.9
2019-03-04T13:42:44.477Z,75.9
2019-03-04T13:43:34.242Z,75.9
2019-03-04T13:44:24.897Z,75.9
2019-03-04T13:45:14.169Z,75.9
2019-03-04T13:46:04.682Z,75.9
2019-03-04T13:46:54.497Z,75.9
2019-03-04T13:47:45.367Z,75.9
2019-03-04T13:48:35.132Z,75.9
2019-03-04T13:49:24.087Z,75.9
2019-03-04T13:50:15.444Z,75.9
2019-03-04T13:51:05.807Z,75.9
2019-03-04T13:51:54.831Z,75.9
2019-03-04T13:52:45.897Z,75.9
2019-03-04T13:53:35.427Z,75.9
2019-03-04T13:54:25.464Z,75.8
2019-03-04T13:55:15.539Z,75.8
2019-03-04T13:56:04.852Z,75.8
2019-03-04T13:56:55.401Z,75.8
2019-03-04T13:57:45.434Z,75.8
2019-03-04T13:58:36.042Z,75.8
2019-03-04T13:59:26.409Z,75.8
2019-03-04T14:00:15.716Z,75.8
2019-03-04T14:01:05.934Z,75.8
2019-03-04T14:01:56.317Z,75.8
2019-03-04T14:02:46.076Z,75.8
2019-03-04T14:03:35.578Z,75.8
2019-03-04T14:04:26.499Z,75.8
2019-03-04T14:05:16.588Z,75.7
2019-03-04T14:08:04.118Z,75.7
2019-03-04T16:07:48.002Z,74.4
2019-03-04T16:08:37.765Z,74.3
2019-03-04T16:09:27.649Z,74.3
2019-03-04T16:10:17.158Z,74.3
2019-03-04T16:11:07.669Z,74.3
2019-03-04T16:11:57.716Z,74.3
2019-03-04T16:12:48.327Z,74.3
2019-03-04T16:13:37.924Z,74.3
2019-03-04T16:14:28.489Z,74.3
2019-03-04T16:15:17.749Z,74.3
2019-03-04T16:16:08.094Z,74.3
2019-03-04T16:16:58.636Z,74.3
2019-03-04T16:17:47.674Z,74.2
2019-03-04T16:18:38.812Z,74.2
2019-03-04T16:19:28.820Z,74.2
2019-03-04T16:20:20.007Z,74.2
2019-03-04T16:21:08.170Z,74.2
2019-03-04T16:21:58.986Z,74.2
2019-03-04T16:22:49.325Z,74.2
2019-03-04T16:23:38.534Z,74.1
2019-03-04T16:24:29.190Z,74.1
2019-03-04T16:25:18.484Z,74.1
2019-03-04T16:26:08.524Z,74.1